sensor_id;sensor_type;location;lat;lon;timestamp;P1;durP1;ratioP1;P2;durP2;ratioP2
325;SDS011;150;52.352;14.058;2022-12-16T00:02:23;18.97;;;12.43;;
325;SDS011;150;52.352;14.058;2022-12-16T00:04:50;24.95;;;14.90;;
325;SDS011;150;52.352;14.058;2022-12-16T00:07:16;22.92;;;14.13;;
325;SDS011;150;52.352;14.058;2022-12-16T00:09:43;21.30;;;13.77;;
325;SDS011;150;52.352;14.058;2022-12-16T00:12:10;18.70;;;12.52;;
325;SDS011;150;52.352;14.058;2022-12-16T00:14:36;21.40;;;14.93;;
325;SDS011;150;52.352;14.058;2022-12-16T00:17:04;21.60;;;13.80;;
325;SDS011;150;52.352;14.058;2022-12-16T00:19:31;20.60;;;14.07;;
325;SDS011;150;52.352;14.058;2022-12-16T00:21:58;21.10;;;12.50;;
325;SDS011;150;52.352;14.058;2022-12-16T00:24:24;23.20;;;15.32;;
325;SDS011;150;52.352;14.058;2022-12-16T00:26:51;24.73;;;14.57;;
325;SDS011;150;52.352;14.058;2022-12-16T00:29:18;17.33;;;12.10;;
325;SDS011;150;52.352;14.058;2022-12-16T00:31:44;23.60;;;15.30;;
325;SDS011;150;52.352;14.058;2022-12-16T00:34:13;21.23;;;13.50;;
325;SDS011;150;52.352;14.058;2022-12-16T00:36:40;20.75;;;12.68;;
325;SDS011;150;52.352;14.058;2022-12-16T00:39:07;23.00;;;12.80;;
325;SDS011;150;52.352;14.058;2022-12-16T00:41:34;19.63;;;12.27;;
325;SDS011;150;52.352;14.058;2022-12-16T00:44:02;18.38;;;12.77;;
325;SDS011;150;52.352;14.058;2022-12-16T00:46:29;16.05;;;12.45;;
325;SDS011;150;52.352;14.058;2022-12-16T00:48:56;17.80;;;11.82;;
325;SDS011;150;52.352;14.058;2022-12-16T00:51:23;18.30;;;12.80;;
325;SDS011;150;52.352;14.058;2022-12-16T00:53:50;15.05;;;10.68;;
325;SDS011;150;52.352;14.058;2022-12-16T00:56:17;17.35;;;11.80;;
325;SDS011;150;52.352;14.058;2022-12-16T00:58:44;20.40;;;12.98;;
325;SDS011;150;52.352;14.058;2022-12-16T01:01:11;16.45;;;12.45;;
325;SDS011;150;52.352;14.058;2022-12-16T01:03:38;19.17;;;11.47;;
325;SDS011;150;52.352;14.058;2022-12-16T01:06:08;21.05;;;10.25;;
325;SDS011;150;52.352;14.058;2022-12-16T01:08:37;17.75;;;11.80;;
325;SDS011;150;52.352;14.058;2022-12-16T01:11:04;20.23;;;11.52;;
325;SDS011;150;52.352;14.058;2022-12-16T01:13:31;17.70;;;11.80;;
325;SDS011;150;52.352;14.058;2022-12-16T01:15:58;20.77;;;12.63;;
325;SDS011;150;52.352;14.058;2022-12-16T01:18:26;18.25;;;11.57;;
325;SDS011;150;52.352;14.058;2022-12-16T01:20:52;24.42;;;13.20;;
325;SDS011;150;52.352;14.058;2022-12-16T01:23:19;22.05;;;12.85;;
325;SDS011;150;52.352;14.058;2022-12-16T01:25:49;18.98;;;11.32;;
325;SDS011;150;52.352;14.058;2022-12-16T01:28:17;19.88;;;12.73;;
325;SDS011;150;52.352;14.058;2022-12-16T01:30:43;19.80;;;12.80;;
325;SDS011;150;52.352;14.058;2022-12-16T01:33:10;19.83;;;12.98;;
325;SDS011;150;52.352;14.058;2022-12-16T01:35:38;20.75;;;12.52;;
325;SDS011;150;52.352;14.058;2022-12-16T01:38:04;22.48;;;12.60;;
325;SDS011;150;52.352;14.058;2022-12-16T01:40:31;20.25;;;13.75;;
325;SDS011;150;52.352;14.058;2022-12-16T01:42:59;20.50;;;12.75;;
325;SDS011;150;52.352;14.058;2022-12-16T01:45:29;23.13;;;12.50;;
325;SDS011;150;52.352;14.058;2022-12-16T01:47:59;20.30;;;12.98;;
325;SDS011;150;52.352;14.058;2022-12-16T01:50:31;17.92;;;11.95;;
325;SDS011;150;52.352;14.058;2022-12-16T01:52:59;18.75;;;12.45;;
325;SDS011;150;52.352;14.058;2022-12-16T01:55:33;16.75;;;11.70;;
325;SDS011;150;52.352;14.058;2022-12-16T01:58:05;17.13;;;12.02;;
325;SDS011;150;52.352;14.058;2022-12-16T02:00:35;19.75;;;12.18;;
325;SDS011;150;52.352;14.058;2022-12-16T02:03:02;21.17;;;12.70;;
325;SDS011;150;52.352;14.058;2022-12-16T02:05:30;23.85;;;12.85;;
325;SDS011;150;52.352;14.058;2022-12-16T02:07:59;17.30;;;13.30;;
325;SDS011;150;52.352;14.058;2022-12-16T02:10:30;21.55;;;11.88;;
325;SDS011;150;52.352;14.058;2022-12-16T02:13:05;21.05;;;11.90;;
325;SDS011;150;52.352;14.058;2022-12-16T02:15:41;19.25;;;13.32;;
325;SDS011;150;52.352;14.058;2022-12-16T02:18:16;25.88;;;13.82;;
325;SDS011;150;52.352;14.058;2022-12-16T02:21:05;21.42;;;13.40;;
325;SDS011;150;52.352;14.058;2022-12-16T02:24:00;19.50;;;13.57;;
325;SDS011;150;52.352;14.058;2022-12-16T02:26:50;17.42;;;10.77;;
325;SDS011;150;52.352;14.058;2022-12-16T02:29:43;21.42;;;12.85;;
325;SDS011;150;52.352;14.058;2022-12-16T02:32:31;15.93;;;10.70;;
325;SDS011;150;52.352;14.058;2022-12-16T02:35:06;19.65;;;12.52;;
325;SDS011;150;52.352;14.058;2022-12-16T02:37:36;23.47;;;12.73;;
325;SDS011;150;52.352;14.058;2022-12-16T02:40:10;23.30;;;14.48;;
325;SDS011;150;52.352;14.058;2022-12-16T02:42:44;19.67;;;13.15;;
325;SDS011;150;52.352;14.058;2022-12-16T02:45:15;17.47;;;12.20;;
325;SDS011;150;52.352;14.058;2022-12-16T02:47:46;19.92;;;13.20;;
325;SDS011;150;52.352;14.058;2022-12-16T02:50:14;18.45;;;12.23;;
325;SDS011;150;52.352;14.058;2022-12-16T02:52:45;18.53;;;10.80;;
325;SDS011;150;52.352;14.058;2022-12-16T02:55:11;21.23;;;14.70;;
325;SDS011;150;52.352;14.058;2022-12-16T03:00:26;19.63;;;12.15;;
325;SDS011;150;52.352;14.058;2022-12-16T03:03:01;21.27;;;13.50;;
325;SDS011;150;52.352;14.058;2022-12-16T03:05:32;26.83;;;13.60;;
325;SDS011;150;52.352;14.058;2022-12-16T03:08:02;20.63;;;13.38;;
325;SDS011;150;52.352;14.058;2022-12-16T03:10:33;22.25;;;13.50;;
325;SDS011;150;52.352;14.058;2022-12-16T03:13:03;19.75;;;11.85;;
325;SDS011;150;52.352;14.058;2022-12-16T03:15:32;21.33;;;14.10;;
325;SDS011;150;52.352;14.058;2022-12-16T03:18:02;21.23;;;14.10;;
325;SDS011;150;52.352;14.058;2022-12-16T03:20:33;21.33;;;12.65;;
325;SDS011;150;52.352;14.058;2022-12-16T03:23:05;19.80;;;11.95;;
325;SDS011;150;52.352;14.058;2022-12-16T03:25:37;20.77;;;13.45;;
325;SDS011;150;52.352;14.058;2022-12-16T03:28:10;17.97;;;11.47;;
325;SDS011;150;52.352;14.058;2022-12-16T03:30:52;20.95;;;13.07;;
325;SDS011;150;52.352;14.058;2022-12-16T03:33:27;20.42;;;12.32;;
325;SDS011;150;52.352;14.058;2022-12-16T03:35:58;16.70;;;10.73;;
325;SDS011;150;52.352;14.058;2022-12-16T03:38:30;20.52;;;12.40;;
325;SDS011;150;52.352;14.058;2022-12-16T03:40:58;22.20;;;14.25;;
325;SDS011;150;52.352;14.058;2022-12-16T03:43:26;22.58;;;13.05;;
325;SDS011;150;52.352;14.058;2022-12-16T03:45:54;19.00;;;12.15;;
325;SDS011;150;52.352;14.058;2022-12-16T03:48:27;23.15;;;13.27;;
325;SDS011;150;52.352;14.058;2022-12-16T03:50:53;23.93;;;13.80;;
325;SDS011;150;52.352;14.058;2022-12-16T03:53:20;21.87;;;13.77;;
325;SDS011;150;52.352;14.058;2022-12-16T03:55:48;22.52;;;13.35;;
325;SDS011;150;52.352;14.058;2022-12-16T03:58:15;23.85;;;14.27;;
325;SDS011;150;52.352;14.058;2022-12-16T04:00:41;20.70;;;14.48;;
325;SDS011;150;52.352;14.058;2022-12-16T04:03:08;18.70;;;13.48;;
325;SDS011;150;52.352;14.058;2022-12-16T04:05:36;20.58;;;14.07;;
325;SDS011;150;52.352;14.058;2022-12-16T04:08:03;17.27;;;12.82;;
325;SDS011;150;52.352;14.058;2022-12-16T04:10:30;24.63;;;15.25;;
325;SDS011;150;52.352;14.058;2022-12-16T04:13:15;30.48;;;14.98;;
325;SDS011;150;52.352;14.058;2022-12-16T04:15:59;19.23;;;13.30;;
325;SDS011;150;52.352;14.058;2022-12-16T04:18:43;22.10;;;11.65;;
325;SDS011;150;52.352;14.058;2022-12-16T04:21:30;17.25;;;12.57;;
325;SDS011;150;52.352;14.058;2022-12-16T04:24:15;22.63;;;13.65;;
325;SDS011;150;52.352;14.058;2022-12-16T04:26:44;24.00;;;13.93;;
325;SDS011;150;52.352;14.058;2022-12-16T04:29:29;28.15;;;15.23;;
325;SDS011;150;52.352;14.058;2022-12-16T04:31:56;33.90;;;17.73;;
325;SDS011;150;52.352;14.058;2022-12-16T04:34:23;24.65;;;16.20;;
325;SDS011;150;52.352;14.058;2022-12-16T04:36:55;25.20;;;16.43;;
325;SDS011;150;52.352;14.058;2022-12-16T04:39:41;24.20;;;15.27;;
325;SDS011;150;52.352;14.058;2022-12-16T04:42:25;26.27;;;14.93;;
325;SDS011;150;52.352;14.058;2022-12-16T04:45:09;24.23;;;16.40;;
325;SDS011;150;52.352;14.058;2022-12-16T04:47:53;19.10;;;12.68;;
325;SDS011;150;52.352;14.058;2022-12-16T04:50:38;20.30;;;12.98;;
325;SDS011;150;52.352;14.058;2022-12-16T04:53:24;23.02;;;13.68;;
325;SDS011;150;52.352;14.058;2022-12-16T04:56:09;25.25;;;14.57;;
325;SDS011;150;52.352;14.058;2022-12-16T04:58:54;24.90;;;15.15;;
325;SDS011;150;52.352;14.058;2022-12-16T05:01:38;22.17;;;13.93;;
325;SDS011;150;52.352;14.058;2022-12-16T05:04:23;19.57;;;13.40;;
325;SDS011;150;52.352;14.058;2022-12-16T05:07:07;27.58;;;16.25;;
325;SDS011;150;52.352;14.058;2022-12-16T05:09:52;27.23;;;15.00;;
325;SDS011;150;52.352;14.058;2022-12-16T05:12:37;25.40;;;16.13;;
325;SDS011;150;52.352;14.058;2022-12-16T05:15:21;23.10;;;13.67;;
325;SDS011;150;52.352;14.058;2022-12-16T05:18:08;22.17;;;13.55;;
325;SDS011;150;52.352;14.058;2022-12-16T05:20:52;27.50;;;17.20;;
325;SDS011;150;52.352;14.058;2022-12-16T05:23:36;29.50;;;17.53;;
325;SDS011;150;52.352;14.058;2022-12-16T05:26:27;30.60;;;16.15;;
325;SDS011;150;52.352;14.058;2022-12-16T05:29:11;26.17;;;16.10;;
325;SDS011;150;52.352;14.058;2022-12-16T05:31:55;22.02;;;15.65;;
325;SDS011;150;52.352;14.058;2022-12-16T05:34:39;29.02;;;17.45;;
325;SDS011;150;52.352;14.058;2022-12-16T05:37:24;28.23;;;16.90;;
325;SDS011;150;52.352;14.058;2022-12-16T05:40:08;31.52;;;20.63;;
325;SDS011;150;52.352;14.058;2022-12-16T05:43:00;22.98;;;14.43;;
325;SDS011;150;52.352;14.058;2022-12-16T05:45:45;29.30;;;17.75;;
325;SDS011;150;52.352;14.058;2022-12-16T05:48:34;24.35;;;17.08;;
325;SDS011;150;52.352;14.058;2022-12-16T05:51:19;25.20;;;16.80;;
325;SDS011;150;52.352;14.058;2022-12-16T05:54:03;30.52;;;18.55;;
325;SDS011;150;52.352;14.058;2022-12-16T05:56:48;22.98;;;17.13;;
325;SDS011;150;52.352;14.058;2022-12-16T05:59:33;35.08;;;16.55;;
325;SDS011;150;52.352;14.058;2022-12-16T06:02:18;25.23;;;16.75;;
325;SDS011;150;52.352;14.058;2022-12-16T06:05:02;23.13;;;16.00;;
325;SDS011;150;52.352;14.058;2022-12-16T06:07:49;28.02;;;16.23;;
325;SDS011;150;52.352;14.058;2022-12-16T06:10:34;28.65;;;16.92;;
325;SDS011;150;52.352;14.058;2022-12-16T06:13:18;25.33;;;15.45;;
325;SDS011;150;52.352;14.058;2022-12-16T06:16:04;19.83;;;13.90;;
325;SDS011;150;52.352;14.058;2022-12-16T06:18:48;29.50;;;16.33;;
325;SDS011;150;52.352;14.058;2022-12-16T06:21:33;26.08;;;16.00;;
325;SDS011;150;52.352;14.058;2022-12-16T06:24:17;27.10;;;16.58;;
325;SDS011;150;52.352;14.058;2022-12-16T06:27:01;25.33;;;15.30;;
325;SDS011;150;52.352;14.058;2022-12-16T06:29:46;26.35;;;15.88;;
325;SDS011;150;52.352;14.058;2022-12-16T06:32:31;28.00;;;18.00;;
325;SDS011;150;52.352;14.058;2022-12-16T06:35:15;28.95;;;17.95;;
325;SDS011;150;52.352;14.058;2022-12-16T06:38:00;25.83;;;15.95;;
325;SDS011;150;52.352;14.058;2022-12-16T06:40:44;27.30;;;19.20;;
325;SDS011;150;52.352;14.058;2022-12-16T06:43:28;32.92;;;20.52;;
325;SDS011;150;52.352;14.058;2022-12-16T06:46:12;28.85;;;19.00;;
325;SDS011;150;52.352;14.058;2022-12-16T06:48:58;29.10;;;17.95;;
325;SDS011;150;52.352;14.058;2022-12-16T06:51:42;29.92;;;17.88;;
325;SDS011;150;52.352;14.058;2022-12-16T06:54:26;30.05;;;17.13;;
325;SDS011;150;52.352;14.058;2022-12-16T06:57:11;38.15;;;25.95;;
325;SDS011;150;52.352;14.058;2022-12-16T06:59:55;43.25;;;27.42;;
325;SDS011;150;52.352;14.058;2022-12-16T07:02:39;33.83;;;21.95;;
325;SDS011;150;52.352;14.058;2022-12-16T07:05:25;31.27;;;22.23;;
325;SDS011;150;52.352;14.058;2022-12-16T07:08:14;29.20;;;23.30;;
325;SDS011;150;52.352;14.058;2022-12-16T07:10:59;31.00;;;19.73;;
325;SDS011;150;52.352;14.058;2022-12-16T07:13:43;33.00;;;20.13;;
325;SDS011;150;52.352;14.058;2022-12-16T07:16:27;31.15;;;20.58;;
325;SDS011;150;52.352;14.058;2022-12-16T07:19:12;34.70;;;22.03;;
325;SDS011;150;52.352;14.058;2022-12-16T07:21:57;32.10;;;20.80;;
325;SDS011;150;52.352;14.058;2022-12-16T07:24:42;26.75;;;21.40;;
325;SDS011;150;52.352;14.058;2022-12-16T07:27:26;26.95;;;18.08;;
325;SDS011;150;52.352;14.058;2022-12-16T07:30:10;33.45;;;21.35;;
325;SDS011;150;52.352;14.058;2022-12-16T07:32:55;25.17;;;18.50;;
325;SDS011;150;52.352;14.058;2022-12-16T07:35:41;31.10;;;18.80;;
325;SDS011;150;52.352;14.058;2022-12-16T07:38:27;23.65;;;16.55;;
325;SDS011;150;52.352;14.058;2022-12-16T07:41:19;29.70;;;18.63;;
325;SDS011;150;52.352;14.058;2022-12-16T07:44:03;31.88;;;18.65;;
325;SDS011;150;52.352;14.058;2022-12-16T07:46:48;27.90;;;19.92;;
325;SDS011;150;52.352;14.058;2022-12-16T07:49:32;34.72;;;21.67;;
325;SDS011;150;52.352;14.058;2022-12-16T07:52:16;36.67;;;22.50;;
325;SDS011;150;52.352;14.058;2022-12-16T07:55:02;30.05;;;20.52;;
325;SDS011;150;52.352;14.058;2022-12-16T07:57:48;35.90;;;22.70;;
325;SDS011;150;52.352;14.058;2022-12-16T08:00:32;34.17;;;22.40;;
325;SDS011;150;52.352;14.058;2022-12-16T08:03:17;31.60;;;23.05;;
325;SDS011;150;52.352;14.058;2022-12-16T08:06:01;31.80;;;21.00;;
325;SDS011;150;52.352;14.058;2022-12-16T08:08:45;35.00;;;21.13;;
325;SDS011;150;52.352;14.058;2022-12-16T08:11:31;36.20;;;21.67;;
325;SDS011;150;52.352;14.058;2022-12-16T08:14:15;37.30;;;20.83;;
325;SDS011;150;52.352;14.058;2022-12-16T08:16:59;35.75;;;23.70;;
325;SDS011;150;52.352;14.058;2022-12-16T08:19:44;33.67;;;22.40;;
325;SDS011;150;52.352;14.058;2022-12-16T08:22:28;32.03;;;21.17;;
325;SDS011;150;52.352;14.058;2022-12-16T08:25:12;32.40;;;22.93;;
325;SDS011;150;52.352;14.058;2022-12-16T08:27:58;33.05;;;24.77;;
325;SDS011;150;52.352;14.058;2022-12-16T08:30:42;39.03;;;24.02;;
325;SDS011;150;52.352;14.058;2022-12-16T08:33:26;38.00;;;25.48;;
325;SDS011;150;52.352;14.058;2022-12-16T08:36:11;36.40;;;24.65;;
325;SDS011;150;52.352;14.058;2022-12-16T08:38:55;38.17;;;25.58;;
325;SDS011;150;52.352;14.058;2022-12-16T08:41:40;45.08;;;27.33;;
325;SDS011;150;52.352;14.058;2022-12-16T08:44:25;36.83;;;25.10;;
325;SDS011;150;52.352;14.058;2022-12-16T08:47:10;46.50;;;29.33;;
325;SDS011;150;52.352;14.058;2022-12-16T08:49:56;43.83;;;27.80;;
325;SDS011;150;52.352;14.058;2022-12-16T08:52:40;42.83;;;27.53;;
325;SDS011;150;52.352;14.058;2022-12-16T08:55:24;38.47;;;26.60;;
325;SDS011;150;52.352;14.058;2022-12-16T08:58:10;39.60;;;27.53;;
325;SDS011;150;52.352;14.058;2022-12-16T09:00:56;42.72;;;27.13;;
325;SDS011;150;52.352;14.058;2022-12-16T09:03:40;41.53;;;23.98;;
325;SDS011;150;52.352;14.058;2022-12-16T09:06:25;43.53;;;24.10;;
325;SDS011;150;52.352;14.058;2022-12-16T09:09:09;37.33;;;23.45;;
325;SDS011;150;52.352;14.058;2022-12-16T09:11:54;38.25;;;25.17;;
325;SDS011;150;52.352;14.058;2022-12-16T09:14:38;43.50;;;25.33;;
325;SDS011;150;52.352;14.058;2022-12-16T09:17:23;44.58;;;24.17;;
325;SDS011;150;52.352;14.058;2022-12-16T09:20:08;45.83;;;24.50;;
325;SDS011;150;52.352;14.058;2022-12-16T09:22:53;53.45;;;25.75;;
325;SDS011;150;52.352;14.058;2022-12-16T09:25:34;42.75;;;25.88;;
325;SDS011;150;52.352;14.058;2022-12-16T09:28:18;46.08;;;25.88;;
325;SDS011;150;52.352;14.058;2022-12-16T09:31:03;39.53;;;25.67;;
325;SDS011;150;52.352;14.058;2022-12-16T09:33:49;42.50;;;27.42;;
325;SDS011;150;52.352;14.058;2022-12-16T09:36:33;43.10;;;25.52;;
325;SDS011;150;52.352;14.058;2022-12-16T09:39:18;47.05;;;25.08;;
325;SDS011;150;52.352;14.058;2022-12-16T09:42:05;43.00;;;26.00;;
325;SDS011;150;52.352;14.058;2022-12-16T09:44:58;44.55;;;27.45;;
325;SDS011;150;52.352;14.058;2022-12-16T09:47:53;43.25;;;27.02;;
325;SDS011;150;52.352;14.058;2022-12-16T09:50:44;55.60;;;33.55;;
325;SDS011;150;52.352;14.058;2022-12-16T09:53:30;49.57;;;27.70;;
325;SDS011;150;52.352;14.058;2022-12-16T09:56:20;41.05;;;26.58;;
325;SDS011;150;52.352;14.058;2022-12-16T09:59:09;41.65;;;24.75;;
325;SDS011;150;52.352;14.058;2022-12-16T10:01:55;48.45;;;29.90;;
325;SDS011;150;52.352;14.058;2022-12-16T10:04:40;41.40;;;27.13;;
325;SDS011;150;52.352;14.058;2022-12-16T10:07:27;39.38;;;26.70;;
325;SDS011;150;52.352;14.058;2022-12-16T10:10:18;45.20;;;24.77;;
325;SDS011;150;52.352;14.058;2022-12-16T10:13:09;47.08;;;28.90;;
325;SDS011;150;52.352;14.058;2022-12-16T10:16:03;44.03;;;28.38;;
325;SDS011;150;52.352;14.058;2022-12-16T10:18:56;53.00;;;28.30;;
325;SDS011;150;52.352;14.058;2022-12-16T10:21:49;46.42;;;28.45;;
325;SDS011;150;52.352;14.058;2022-12-16T10:24:43;46.53;;;28.30;;
325;SDS011;150;52.352;14.058;2022-12-16T10:27:33;48.63;;;27.50;;
325;SDS011;150;52.352;14.058;2022-12-16T10:30:40;44.00;;;27.50;;
325;SDS011;150;52.352;14.058;2022-12-16T10:33:26;47.58;;;27.33;;
325;SDS011;150;52.352;14.058;2022-12-16T10:36:13;47.35;;;26.80;;
325;SDS011;150;52.352;14.058;2022-12-16T10:39:02;44.95;;;26.40;;
325;SDS011;150;52.352;14.058;2022-12-16T10:41:51;48.08;;;27.88;;
325;SDS011;150;52.352;14.058;2022-12-16T10:44:37;44.15;;;26.73;;
325;SDS011;150;52.352;14.058;2022-12-16T10:47:30;47.20;;;28.13;;
325;SDS011;150;52.352;14.058;2022-12-16T10:50:15;41.85;;;26.52;;
325;SDS011;150;52.352;14.058;2022-12-16T10:53:00;45.00;;;26.63;;
325;SDS011;150;52.352;14.058;2022-12-16T10:55:53;46.60;;;26.97;;
325;SDS011;150;52.352;14.058;2022-12-16T10:58:52;50.58;;;26.83;;
325;SDS011;150;52.352;14.058;2022-12-16T11:01:37;48.80;;;27.02;;
325;SDS011;150;52.352;14.058;2022-12-16T11:04:28;44.40;;;28.55;;
325;SDS011;150;52.352;14.058;2022-12-16T11:07:21;46.03;;;28.77;;
325;SDS011;150;52.352;14.058;2022-12-16T11:10:23;51.30;;;29.33;;
325;SDS011;150;52.352;14.058;2022-12-16T11:13:10;49.55;;;29.60;;
325;SDS011;150;52.352;14.058;2022-12-16T11:16:05;50.80;;;30.92;;
325;SDS011;150;52.352;14.058;2022-12-16T11:18:53;44.72;;;27.85;;
325;SDS011;150;52.352;14.058;2022-12-16T11:21:37;46.75;;;27.55;;
325;SDS011;150;52.352;14.058;2022-12-16T11:24:23;54.95;;;32.42;;
325;SDS011;150;52.352;14.058;2022-12-16T11:27:12;52.25;;;29.10;;
325;SDS011;150;52.352;14.058;2022-12-16T11:29:58;48.75;;;28.02;;
325;SDS011;150;52.352;14.058;2022-12-16T11:32:46;43.33;;;27.70;;
325;SDS011;150;52.352;14.058;2022-12-16T11:35:33;38.75;;;26.25;;
325;SDS011;150;52.352;14.058;2022-12-16T11:38:23;45.20;;;27.57;;
325;SDS011;150;52.352;14.058;2022-12-16T11:41:12;46.08;;;27.70;;
325;SDS011;150;52.352;14.058;2022-12-16T11:44:05;57.10;;;28.60;;
325;SDS011;150;52.352;14.058;2022-12-16T11:46:56;47.42;;;28.20;;
325;SDS011;150;52.352;14.058;2022-12-16T11:49:42;44.42;;;26.33;;
325;SDS011;150;52.352;14.058;2022-12-16T11:52:28;46.63;;;26.48;;
325;SDS011;150;52.352;14.058;2022-12-16T11:55:29;52.25;;;28.23;;
325;SDS011;150;52.352;14.058;2022-12-16T11:58:15;48.78;;;29.42;;
325;SDS011;150;52.352;14.058;2022-12-16T12:01:07;51.53;;;29.20;;
325;SDS011;150;52.352;14.058;2022-12-16T12:03:58;43.92;;;28.50;;
325;SDS011;150;52.352;14.058;2022-12-16T12:06:53;52.45;;;33.15;;
325;SDS011;150;52.352;14.058;2022-12-16T12:10:00;49.25;;;28.20;;
325;SDS011;150;52.352;14.058;2022-12-16T12:12:55;48.80;;;29.27;;
325;SDS011;150;52.352;14.058;2022-12-16T12:15:46;49.20;;;30.30;;
325;SDS011;150;52.352;14.058;2022-12-16T12:18:39;54.28;;;28.98;;
325;SDS011;150;52.352;14.058;2022-12-16T12:21:31;51.80;;;31.15;;
325;SDS011;150;52.352;14.058;2022-12-16T12:24:25;53.83;;;33.25;;
325;SDS011;150;52.352;14.058;2022-12-16T12:27:17;44.67;;;28.13;;
325;SDS011;150;52.352;14.058;2022-12-16T12:30:09;55.92;;;30.30;;
325;SDS011;150;52.352;14.058;2022-12-16T12:33:00;42.00;;;27.20;;
325;SDS011;150;52.352;14.058;2022-12-16T12:35:59;49.33;;;26.57;;
325;SDS011;150;52.352;14.058;2022-12-16T12:38:51;49.25;;;28.60;;
325;SDS011;150;52.352;14.058;2022-12-16T12:45:14;53.60;;;30.17;;
325;SDS011;150;52.352;14.058;2022-12-16T12:48:12;47.72;;;28.13;;
325;SDS011;150;52.352;14.058;2022-12-16T12:51:04;53.07;;;32.50;;
325;SDS011;150;52.352;14.058;2022-12-16T12:54:05;41.25;;;27.33;;
325;SDS011;150;52.352;14.058;2022-12-16T12:57:07;51.70;;;29.27;;
325;SDS011;150;52.352;14.058;2022-12-16T12:59:57;52.67;;;34.20;;
325;SDS011;150;52.352;14.058;2022-12-16T13:02:47;48.55;;;29.38;;
325;SDS011;150;52.352;14.058;2022-12-16T13:05:37;51.15;;;30.15;;
325;SDS011;150;52.352;14.058;2022-12-16T13:15:16;51.72;;;28.45;;
325;SDS011;150;52.352;14.058;2022-12-16T13:18:23;52.90;;;31.23;;
325;SDS011;150;52.352;14.058;2022-12-16T13:24:37;54.45;;;31.10;;
325;SDS011;150;52.352;14.058;2022-12-16T13:27:27;50.85;;;32.20;;
325;SDS011;150;52.352;14.058;2022-12-16T13:30:20;51.72;;;31.77;;
325;SDS011;150;52.352;14.058;2022-12-16T13:33:20;55.93;;;32.07;;
325;SDS011;150;52.352;14.058;2022-12-16T13:36:10;51.25;;;31.77;;
325;SDS011;150;52.352;14.058;2022-12-16T13:39:07;54.13;;;31.02;;
325;SDS011;150;52.352;14.058;2022-12-16T13:42:05;53.00;;;29.20;;
325;SDS011;150;52.352;14.058;2022-12-16T13:45:15;52.88;;;34.15;;
325;SDS011;150;52.352;14.058;2022-12-16T13:54:27;56.87;;;31.77;;
325;SDS011;150;52.352;14.058;2022-12-16T13:57:14;54.58;;;32.97;;
325;SDS011;150;52.352;14.058;2022-12-16T14:00:00;59.42;;;32.65;;
325;SDS011;150;52.352;14.058;2022-12-16T14:02:49;58.47;;;28.38;;
325;SDS011;150;52.352;14.058;2022-12-16T14:05:35;49.50;;;31.23;;
325;SDS011;150;52.352;14.058;2022-12-16T14:08:24;52.70;;;29.55;;
325;SDS011;150;52.352;14.058;2022-12-16T14:11:17;52.25;;;30.13;;
325;SDS011;150;52.352;14.058;2022-12-16T14:14:06;53.33;;;32.37;;
325;SDS011;150;52.352;14.058;2022-12-16T14:16:56;48.33;;;31.10;;
325;SDS011;150;52.352;14.058;2022-12-16T14:19:45;47.75;;;27.98;;
325;SDS011;150;52.352;14.058;2022-12-16T14:22:47;45.10;;;28.67;;
325;SDS011;150;52.352;14.058;2022-12-16T14:25:35;49.30;;;30.48;;
325;SDS011;150;52.352;14.058;2022-12-16T14:28:24;59.13;;;31.65;;
325;SDS011;150;52.352;14.058;2022-12-16T14:31:13;51.33;;;30.83;;
325;SDS011;150;52.352;14.058;2022-12-16T14:34:00;54.67;;;31.55;;
325;SDS011;150;52.352;14.058;2022-12-16T14:36:47;85.15;;;48.10;;
325;SDS011;150;52.352;14.058;2022-12-16T14:39:35;75.53;;;46.05;;
325;SDS011;150;52.352;14.058;2022-12-16T14:42:21;54.30;;;37.00;;
325;SDS011;150;52.352;14.058;2022-12-16T14:45:20;58.83;;;35.20;;
325;SDS011;150;52.352;14.058;2022-12-16T14:48:18;55.70;;;35.10;;
325;SDS011;150;52.352;14.058;2022-12-16T14:51:16;59.72;;;37.28;;
325;SDS011;150;52.352;14.058;2022-12-16T14:54:16;59.60;;;34.08;;
325;SDS011;150;52.352;14.058;2022-12-16T14:57:02;49.08;;;29.23;;
325;SDS011;150;52.352;14.058;2022-12-16T14:59:57;56.03;;;32.75;;
325;SDS011;150;52.352;14.058;2022-12-16T15:02:44;52.50;;;32.92;;
325;SDS011;150;52.352;14.058;2022-12-16T15:05:32;44.72;;;30.10;;
325;SDS011;150;52.352;14.058;2022-12-16T15:08:18;63.50;;;31.92;;
325;SDS011;150;52.352;14.058;2022-12-16T15:11:03;52.83;;;33.50;;
325;SDS011;150;52.352;14.058;2022-12-16T15:13:52;50.10;;;31.98;;
325;SDS011;150;52.352;14.058;2022-12-16T15:16:40;61.45;;;35.15;;
325;SDS011;150;52.352;14.058;2022-12-16T15:19:40;56.55;;;29.70;;
325;SDS011;150;52.352;14.058;2022-12-16T15:22:29;59.17;;;33.95;;
325;SDS011;150;52.352;14.058;2022-12-16T15:25:20;51.75;;;29.38;;
325;SDS011;150;52.352;14.058;2022-12-16T15:28:19;49.83;;;31.02;;
325;SDS011;150;52.352;14.058;2022-12-16T15:31:11;47.60;;;30.52;;
325;SDS011;150;52.352;14.058;2022-12-16T15:37:21;55.63;;;32.55;;
325;SDS011;150;52.352;14.058;2022-12-16T15:40:17;49.30;;;29.42;;
325;SDS011;150;52.352;14.058;2022-12-16T15:43:19;45.33;;;29.05;;
325;SDS011;150;52.352;14.058;2022-12-16T15:46:14;50.25;;;29.50;;
325;SDS011;150;52.352;14.058;2022-12-16T15:49:00;45.35;;;28.42;;
325;SDS011;150;52.352;14.058;2022-12-16T15:51:44;61.60;;;33.42;;
325;SDS011;150;52.352;14.058;2022-12-16T15:54:31;47.20;;;27.40;;
325;SDS011;150;52.352;14.058;2022-12-16T15:57:22;50.88;;;29.17;;
325;SDS011;150;52.352;14.058;2022-12-16T16:00:16;55.25;;;31.83;;
325;SDS011;150;52.352;14.058;2022-12-16T16:03:02;52.42;;;29.80;;
325;SDS011;150;52.352;14.058;2022-12-16T16:05:47;57.42;;;31.75;;
325;SDS011;150;52.352;14.058;2022-12-16T16:08:31;55.70;;;31.17;;
325;SDS011;150;52.352;14.058;2022-12-16T16:11:17;49.70;;;30.73;;
325;SDS011;150;52.352;14.058;2022-12-16T16:14:03;49.13;;;31.58;;
325;SDS011;150;52.352;14.058;2022-12-16T16:16:47;47.87;;;31.73;;
325;SDS011;150;52.352;14.058;2022-12-16T16:19:32;51.75;;;30.92;;
325;SDS011;150;52.352;14.058;2022-12-16T16:22:16;51.28;;;31.27;;
325;SDS011;150;52.352;14.058;2022-12-16T16:25:01;55.38;;;33.15;;
325;SDS011;150;52.352;14.058;2022-12-16T16:27:47;62.80;;;40.00;;
325;SDS011;150;52.352;14.058;2022-12-16T16:30:31;53.72;;;33.08;;
325;SDS011;150;52.352;14.058;2022-12-16T16:33:15;53.05;;;32.67;;
325;SDS011;150;52.352;14.058;2022-12-16T16:36:00;54.50;;;32.60;;
325;SDS011;150;52.352;14.058;2022-12-16T16:38:44;56.08;;;31.88;;
325;SDS011;150;52.352;14.058;2022-12-16T16:41:29;47.25;;;28.98;;
325;SDS011;150;52.352;14.058;2022-12-16T16:44:28;53.70;;;31.23;;
325;SDS011;150;52.352;14.058;2022-12-16T16:47:14;52.40;;;32.88;;
325;SDS011;150;52.352;14.058;2022-12-16T16:49:59;53.67;;;31.77;;
325;SDS011;150;52.352;14.058;2022-12-16T16:52:44;52.40;;;31.85;;
325;SDS011;150;52.352;14.058;2022-12-16T16:55:28;49.38;;;31.17;;
325;SDS011;150;52.352;14.058;2022-12-16T16:58:13;52.53;;;33.38;;
325;SDS011;150;52.352;14.058;2022-12-16T17:01:02;52.45;;;31.05;;
325;SDS011;150;52.352;14.058;2022-12-16T17:03:47;49.35;;;29.08;;